sensor_id;sensor_type;location;lat;lon;timestamp;temperature;humidity
20233;DHT22;37438;55.674;13.074;2023-06-04T00:02:44;11.90;99.90
20233;DHT22;37438;55.674;13.074;2023-06-04T00:05:48;12.00;99.90
20233;DHT22;37438;55.674;13.074;2023-06-04T00:08:53;12.00;99.90
20233;DHT22;37438;55.674;13.074;2023-06-04T00:11:57;12.40;99.90
20233;DHT22;37438;55.674;13.074;2023-06-04T00:15:02;12.50;99.90
20233;DHT22;37438;55.674;13.074;2023-06-04T00:18:06;12.70;99.90
20233;DHT22;37438;55.674;13.074;2023-06-04T00:21:11;12.70;99.90
20233;DHT22;37438;55.674;13.074;2023-06-04T00:24:16;12.70;99.90
20233;DHT22;37438;55.674;13.074;2023-06-04T00:27:20;12.80;99.90
20233;DHT22;37438;55.674;13.074;2023-06-04T00:30:25;12.80;99.90
20233;DHT22;37438;55.674;13.074;2023-06-04T00:33:29;12.90;99.90
20233;DHT22;37438;55.674;13.074;2023-06-04T00:36:34;13.00;99.90
20233;DHT22;37438;55.674;13.074;2023-06-04T00:39:38;13.20;81.30
20233;DHT22;37438;55.674;13.074;2023-06-04T00:42:43;13.20;1.00
20233;DHT22;37438;55.674;13.074;2023-06-04T00:45:49;13.00;99.90
20233;DHT22;37438;55.674;13.074;2023-06-04T00:48:54;12.60;99.90
20233;DHT22;37438;55.674;13.074;2023-06-04T00:51:59;12.40;99.90
20233;DHT22;37438;55.674;13.074;2023-06-04T00:55:04;12.20;99.90
20233;DHT22;37438;55.674;13.074;2023-06-04T00:58:08;12.00;99.90
20233;DHT22;37438;55.674;13.074;2023-06-04T01:04:32;11.80;99.90
20233;DHT22;37438;55.674;13.074;2023-06-04T01:07:38;11.70;99.90
20233;DHT22;37438;55.674;13.074;2023-06-04T01:10:51;11.60;99.90
20233;DHT22;37438;55.674;13.074;2023-06-04T01:13:55;11.60;99.90
20233;DHT22;37438;55.674;13.074;2023-06-04T01:17:08;11.50;99.90
20233;DHT22;37438;55.674;13.074;2023-06-04T01:23:28;11.60;99.90
20233;DHT22;37438;55.674;13.074;2023-06-04T01:26:38;11.50;99.90
20233;DHT22;37438;55.674;13.074;2023-06-04T01:29:43;11.50;99.90
20233;DHT22;37438;55.674;13.074;2023-06-04T01:32:48;11.50;99.90
20233;DHT22;37438;55.674;13.074;2023-06-04T01:35:53;11.50;99.90
20233;DHT22;37438;55.674;13.074;2023-06-04T01:38:58;11.60;99.90
20233;DHT22;37438;55.674;13.074;2023-06-04T01:42:04;11.50;99.90
20233;DHT22;37438;55.674;13.074;2023-06-04T01:45:09;11.70;99.90
20233;DHT22;37438;55.674;13.074;2023-06-04T01:48:13;11.70;99.90
20233;DHT22;37438;55.674;13.074;2023-06-04T01:51:18;11.70;99.90
20233;DHT22;37438;55.674;13.074;2023-06-04T01:54:23;12.10;99.90
20233;DHT22;37438;55.674;13.074;2023-06-04T01:57:27;12.40;99.90
20233;DHT22;37438;55.674;13.074;2023-06-04T02:00:31;12.30;99.90
20233;DHT22;37438;55.674;13.074;2023-06-04T02:03:36;12.20;99.90
20233;DHT22;37438;55.674;13.074;2023-06-04T02:06:45;12.10;99.90
20233;DHT22;37438;55.674;13.074;2023-06-04T02:09:50;12.20;99.90
20233;DHT22;37438;55.674;13.074;2023-06-04T02:12:55;12.30;99.90
20233;DHT22;37438;55.674;13.074;2023-06-04T02:16:00;11.90;99.90
20233;DHT22;37438;55.674;13.074;2023-06-04T02:19:05;11.90;99.90
20233;DHT22;37438;55.674;13.074;2023-06-04T02:22:09;12.00;99.90
20233;DHT22;37438;55.674;13.074;2023-06-04T02:25:14;12.10;99.90
20233;DHT22;37438;55.674;13.074;2023-06-04T02:28:20;12.20;99.90
20233;DHT22;37438;55.674;13.074;2023-06-04T02:31:25;12.40;99.90
20233;DHT22;37438;55.674;13.074;2023-06-04T02:34:29;12.50;99.90
20233;DHT22;37438;55.674;13.074;2023-06-04T02:37:34;12.60;99.90
20233;DHT22;37438;55.674;13.074;2023-06-04T02:40:38;12.60;99.90
20233;DHT22;37438;55.674;13.074;2023-06-04T02:43:43;12.70;99.90
20233;DHT22;37438;55.674;13.074;2023-06-04T02:46:48;12.60;99.90
20233;DHT22;37438;55.674;13.074;2023-06-04T02:49:52;12.60;99.90
20233;DHT22;37438;55.674;13.074;2023-06-04T02:52:57;12.50;99.90
20233;DHT22;37438;55.674;13.074;2023-06-04T02:56:01;12.40;99.90
20233;DHT22;37438;55.674;13.074;2023-06-04T02:59:06;12.40;99.90
20233;DHT22;37438;55.674;13.074;2023-06-04T03:02:15;12.40;99.90
20233;DHT22;37438;55.674;13.074;2023-06-04T03:05:20;12.30;99.90
20233;DHT22;37438;55.674;13.074;2023-06-04T03:08:28;12.30;99.90
20233;DHT22;37438;55.674;13.074;2023-06-04T03:11:32;12.30;99.90
20233;DHT22;37438;55.674;13.074;2023-06-04T03:14:37;12.30;99.90
20233;DHT22;37438;55.674;13.074;2023-06-04T03:17:41;12.30;99.90
20233;DHT22;37438;55.674;13.074;2023-06-04T03:20:46;12.30;99.90
20233;DHT22;37438;55.674;13.074;2023-06-04T03:23:51;12.40;99.90
20233;DHT22;37438;55.674;13.074;2023-06-04T03:26:55;12.30;99.90
20233;DHT22;37438;55.674;13.074;2023-06-04T03:30:00;12.40;99.90
20233;DHT22;37438;55.674;13.074;2023-06-04T03:33:12;12.40;99.90
20233;DHT22;37438;55.674;13.074;2023-06-04T03:36:17;12.50;99.90
20233;DHT22;37438;55.674;13.074;2023-06-04T03:39:21;12.50;99.90
20233;DHT22;37438;55.674;13.074;2023-06-04T03:42:26;12.50;99.90
20233;DHT22;37438;55.674;13.074;2023-06-04T03:45:31;12.60;99.90
20233;DHT22;37438;55.674;13.074;2023-06-04T03:48:35;12.60;99.90
20233;DHT22;37438;55.674;13.074;2023-06-04T03:51:40;12.60;99.90
20233;DHT22;37438;55.674;13.074;2023-06-04T03:54:46;12.60;99.90
20233;DHT22;37438;55.674;13.074;2023-06-04T03:57:51;12.60;99.90
20233;DHT22;37438;55.674;13.074;2023-06-04T04:00:56;12.70;99.90
20233;DHT22;37438;55.674;13.074;2023-06-04T04:04:01;12.80;99.90
20233;DHT22;37438;55.674;13.074;2023-06-04T04:07:05;12.80;99.90
20233;DHT22;37438;55.674;13.074;2023-06-04T04:10:11;12.80;99.90
20233;DHT22;37438;55.674;13.074;2023-06-04T04:13:17;12.80;99.90
20233;DHT22;37438;55.674;13.074;2023-06-04T04:16:22;12.80;99.90
20233;DHT22;37438;55.674;13.074;2023-06-04T04:19:28;12.90;99.90
20233;DHT22;37438;55.674;13.074;2023-06-04T04:22:33;13.00;99.90
20233;DHT22;37438;55.674;13.074;2023-06-04T04:25:38;13.00;99.90
20233;DHT22;37438;55.674;13.074;2023-06-04T04:28:44;13.10;99.90
20233;DHT22;37438;55.674;13.074;2023-06-04T04:31:49;13.00;1.00
20233;DHT22;37438;55.674;13.074;2023-06-04T04:34:55;13.10;1.00
20233;DHT22;37438;55.674;13.074;2023-06-04T04:38:05;13.20;99.90
20233;DHT22;37438;55.674;13.074;2023-06-04T04:41:15;13.30;99.90
20233;DHT22;37438;55.674;13.074;2023-06-04T04:44:20;13.30;99.90
20233;DHT22;37438;55.674;13.074;2023-06-04T04:47:25;13.40;99.90
20233;DHT22;37438;55.674;13.074;2023-06-04T04:50:29;13.60;99.90
20233;DHT22;37438;55.674;13.074;2023-06-04T04:53:36;13.80;1.00
20233;DHT22;37438;55.674;13.074;2023-06-04T04:56:41;13.70;99.90
20233;DHT22;37438;55.674;13.074;2023-06-04T04:59:45;13.90;99.90
20233;DHT22;37438;55.674;13.074;2023-06-04T05:02:50;14.00;12.80
20233;DHT22;37438;55.674;13.074;2023-06-04T05:05:55;13.90;1.00
20233;DHT22;37438;55.674;13.074;2023-06-04T05:09:00;13.90;1.00
20233;DHT22;37438;55.674;13.074;2023-06-04T05:12:06;14.00;99.90
20233;DHT22;37438;55.674;13.074;2023-06-04T05:15:11;13.90;53.40
20233;DHT22;37438;55.674;13.074;2023-06-04T05:18:17;14.40;99.90
20233;DHT22;37438;55.674;13.074;2023-06-04T05:21:25;14.00;99.90
20233;DHT22;37438;55.674;13.074;2023-06-04T05:24:36;14.00;99.90
20233;DHT22;37438;55.674;13.074;2023-06-04T05:27:42;14.30;99.90
20233;DHT22;37438;55.674;13.074;2023-06-04T05:30:48;14.80;1.00
20233;DHT22;37438;55.674;13.074;2023-06-04T05:33:54;15.00;99.90
20233;DHT22;37438;55.674;13.074;2023-06-04T05:37:00;15.00;99.90
20233;DHT22;37438;55.674;13.074;2023-06-04T05:40:05;14.70;48.10
20233;DHT22;37438;55.674;13.074;2023-06-04T05:43:11;14.60;19.70
20233;DHT22;37438;55.674;13.074;2023-06-04T05:46:16;14.70;99.90
20233;DHT22;37438;55.674;13.074;2023-06-04T05:49:21;14.70;99.90
20233;DHT22;37438;55.674;13.074;2023-06-04T05:52:29;15.20;99.90
20233;DHT22;37438;55.674;13.074;2023-06-04T05:55:34;16.10;99.90
20233;DHT22;37438;55.674;13.074;2023-06-04T05:58:38;15.50;99.90
20233;DHT22;37438;55.674;13.074;2023-06-04T06:01:44;15.10;44.50
20233;DHT22;37438;55.674;13.074;2023-06-04T06:04:48;14.80;1.00
20233;DHT22;37438;55.674;13.074;2023-06-04T06:07:53;14.80;1.00
20233;DHT22;37438;55.674;13.074;2023-06-04T06:11:00;15.00;99.90
20233;DHT22;37438;55.674;13.074;2023-06-04T06:14:05;15.10;99.90
20233;DHT22;37438;55.674;13.074;2023-06-04T06:17:09;15.00;63.30
20233;DHT22;37438;55.674;13.074;2023-06-04T06:20:14;16.20;99.90
20233;DHT22;37438;55.674;13.074;2023-06-04T06:23:23;15.80;1.00
20233;DHT22;37438;55.674;13.074;2023-06-04T06:26:28;15.50;99.90
20233;DHT22;37438;55.674;13.074;2023-06-04T06:29:35;15.20;99.90
20233;DHT22;37438;55.674;13.074;2023-06-04T06:32:40;15.40;99.90
20233;DHT22;37438;55.674;13.074;2023-06-04T06:35:44;15.80;99.90
20233;DHT22;37438;55.674;13.074;2023-06-04T06:38:50;15.60;1.00
20233;DHT22;37438;55.674;13.074;2023-06-04T06:41:55;15.70;99.90
20233;DHT22;37438;55.674;13.074;2023-06-04T06:45:03;15.50;38.60
20233;DHT22;37438;55.674;13.074;2023-06-04T06:48:07;15.70;1.00
20233;DHT22;37438;55.674;13.074;2023-06-04T06:51:12;16.50;72.60
20233;DHT22;37438;55.674;13.074;2023-06-04T06:54:16;16.60;1.00
20233;DHT22;37438;55.674;13.074;2023-06-04T06:57:21;16.50;99.90
20233;DHT22;37438;55.674;13.074;2023-06-04T07:00:27;16.30;99.90
20233;DHT22;37438;55.674;13.074;2023-06-04T07:03:34;16.40;99.90
20233;DHT22;37438;55.674;13.074;2023-06-04T07:06:39;15.70;99.90
20233;DHT22;37438;55.674;13.074;2023-06-04T07:09:43;16.80;99.90
20233;DHT22;37438;55.674;13.074;2023-06-04T07:12:48;17.20;99.90
20233;DHT22;37438;55.674;13.074;2023-06-04T07:15:53;16.30;99.90
20233;DHT22;37438;55.674;13.074;2023-06-04T07:18:58;16.60;99.90
20233;DHT22;37438;55.674;13.074;2023-06-04T07:22:03;16.30;99.90
20233;DHT22;37438;55.674;13.074;2023-06-04T07:25:07;16.60;99.90
20233;DHT22;37438;55.674;13.074;2023-06-04T07:28:12;16.80;99.90
20233;DHT22;37438;55.674;13.074;2023-06-04T07:31:17;16.60;99.90
20233;DHT22;37438;55.674;13.074;2023-06-04T07:34:21;18.00;99.90
20233;DHT22;37438;55.674;13.074;2023-06-04T07:37:26;17.70;55.40
20233;DHT22;37438;55.674;13.074;2023-06-04T07:40:31;19.30;1.00
20233;DHT22;37438;55.674;13.074;2023-06-04T07:43:35;18.00;99.90
20233;DHT22;37438;55.674;13.074;2023-06-04T07:46:40;18.40;1.00
20233;DHT22;37438;55.674;13.074;2023-06-04T07:49:44;19.80;99.90
20233;DHT22;37438;55.674;13.074;2023-06-04T07:53:05;19.80;99.90
20233;DHT22;37438;55.674;13.074;2023-06-04T07:56:10;18.40;99.90
20233;DHT22;37438;55.674;13.074;2023-06-04T07:59:15;16.80;99.90
20233;DHT22;37438;55.674;13.074;2023-06-04T08:02:19;18.50;99.90
20233;DHT22;37438;55.674;13.074;2023-06-04T08:05:24;18.30;99.90
20233;DHT22;37438;55.674;13.074;2023-06-04T08:08:28;20.30;99.90
20233;DHT22;37438;55.674;13.074;2023-06-04T08:11:33;18.90;99.90
20233;DHT22;37438;55.674;13.074;2023-06-04T08:14:37;19.00;99.90
20233;DHT22;37438;55.674;13.074;2023-06-04T08:17:42;18.80;99.90
20233;DHT22;37438;55.674;13.074;2023-06-04T08:20:46;20.30;99.90
20233;DHT22;37438;55.674;13.074;2023-06-04T08:23:51;20.90;99.90
20233;DHT22;37438;55.674;13.074;2023-06-04T08:26:56;21.20;99.90
20233;DHT22;37438;55.674;13.074;2023-06-04T08:30:00;21.50;12.40
20233;DHT22;37438;55.674;13.074;2023-06-04T08:33:06;19.80;1.00
20233;DHT22;37438;55.674;13.074;2023-06-04T08:36:13;19.80;1.00
20233;DHT22;37438;55.674;13.074;2023-06-04T08:39:18;19.70;1.00
20233;DHT22;37438;55.674;13.074;2023-06-04T08:42:27;20.30;99.90
20233;DHT22;37438;55.674;13.074;2023-06-04T08:45:33;20.80;99.90
20233;DHT22;37438;55.674;13.074;2023-06-04T08:48:42;20.90;99.90
20233;DHT22;37438;55.674;13.074;2023-06-04T08:51:47;19.90;99.90
20233;DHT22;37438;55.674;13.074;2023-06-04T08:54:52;21.60;99.90
20233;DHT22;37438;55.674;13.074;2023-06-04T08:57:58;22.50;99.90
20233;DHT22;37438;55.674;13.074;2023-06-04T09:01:03;20.60;99.90
20233;DHT22;37438;55.674;13.074;2023-06-04T09:04:07;21.20;99.90
20233;DHT22;37438;55.674;13.074;2023-06-04T09:07:16;22.00;99.90
20233;DHT22;37438;55.674;13.074;2023-06-04T09:10:22;21.50;53.10
20233;DHT22;37438;55.674;13.074;2023-06-04T09:13:28;21.40;82.20
20233;DHT22;37438;55.674;13.074;2023-06-04T09:16:45;21.30;41.30
20233;DHT22;37438;55.674;13.074;2023-06-04T09:19:51;19.90;96.20
20233;DHT22;37438;55.674;13.074;2023-06-04T09:22:55;22.20;62.40
20233;DHT22;37438;55.674;13.074;2023-06-04T09:26:07;20.20;80.30
20233;DHT22;37438;55.674;13.074;2023-06-04T09:29:12;19.40;99.90
20233;DHT22;37438;55.674;13.074;2023-06-04T09:32:27;22.20;84.10
20233;DHT22;37438;55.674;13.074;2023-06-04T09:35:31;21.10;70.90
20233;DHT22;37438;55.674;13.074;2023-06-04T09:38:36;21.50;71.80
20233;DHT22;37438;55.674;13.074;2023-06-04T09:41:42;20.30;63.40
20233;DHT22;37438;55.674;13.074;2023-06-04T09:44:46;19.20;99.90
20233;DHT22;37438;55.674;13.074;2023-06-04T09:47:51;19.00;99.90
20233;DHT22;37438;55.674;13.074;2023-06-04T09:50:55;20.50;90.50
20233;DHT22;37438;55.674;13.074;2023-06-04T09:54:10;20.40;93.70
20233;DHT22;37438;55.674;13.074;2023-06-04T09:57:15;20.80;77.20
20233;DHT22;37438;55.674;13.074;2023-06-04T10:00:21;20.80;89.30
20233;DHT22;37438;55.674;13.074;2023-06-04T10:03:33;20.50;76.20
20233;DHT22;37438;55.674;13.074;2023-06-04T10:06:39;21.00;60.00
20233;DHT22;37438;55.674;13.074;2023-06-04T10:09:43;20.30;76.10
20233;DHT22;37438;55.674;13.074;2023-06-04T10:13:01;20.00;94.00
20233;DHT22;37438;55.674;13.074;2023-06-04T10:16:06;19.90;97.00
20233;DHT22;37438;55.674;13.074;2023-06-04T10:19:18;20.40;91.90
20233;DHT22;37438;55.674;13.074;2023-06-04T10:22:23;20.20;61.70
20233;DHT22;37438;55.674;13.074;2023-06-04T10:25:28;19.90;76.10
20233;DHT22;37438;55.674;13.074;2023-06-04T10:28:33;19.60;85.70
20233;DHT22;37438;55.674;13.074;2023-06-04T10:31:37;19.80;94.70
20233;DHT22;37438;55.674;13.074;2023-06-04T10:34:42;20.60;77.80
20233;DHT22;37438;55.674;13.074;2023-06-04T10:37:47;20.30;87.50
20233;DHT22;37438;55.674;13.074;2023-06-04T10:40:52;20.30;70.90
20233;DHT22;37438;55.674;13.074;2023-06-04T10:44:00;21.20;68.10
20233;DHT22;37438;55.674;13.074;2023-06-04T10:47:05;21.10;53.40
20233;DHT22;37438;55.674;13.074;2023-06-04T10:50:10;21.00;50.00
20233;DHT22;37438;55.674;13.074;2023-06-04T10:53:16;20.80;41.30
20233;DHT22;37438;55.674;13.074;2023-06-04T10:56:33;20.40;53.00
20233;DHT22;37438;55.674;13.074;2023-06-04T10:59:39;20.00;59.10
20233;DHT22;37438;55.674;13.074;2023-06-04T11:02:53;20.70;55.40
20233;DHT22;37438;55.674;13.074;2023-06-04T11:05:58;21.10;31.20
20233;DHT22;37438;55.674;13.074;2023-06-04T11:09:03;21.20;21.50
20233;DHT22;37438;55.674;13.074;2023-06-04T11:12:08;20.50;46.40
20233;DHT22;37438;55.674;13.074;2023-06-04T11:15:13;21.00;43.70
20233;DHT22;37438;55.674;13.074;2023-06-04T11:18:19;20.50;31.10
20233;DHT22;37438;55.674;13.074;2023-06-04T11:21:24;21.20;27.70
20233;DHT22;37438;55.674;13.074;2023-06-04T11:24:31;20.40;35.30
20233;DHT22;37438;55.674;13.074;2023-06-04T11:27:36;21.00;28.40
20233;DHT22;37438;55.674;13.074;2023-06-04T11:30:41;21.90;22.20
20233;DHT22;37438;55.674;13.074;2023-06-04T11:33:46;21.00;23.30
20233;DHT22;37438;55.674;13.074;2023-06-04T11:36:50;21.30;21.90
20233;DHT22;37438;55.674;13.074;2023-06-04T11:39:56;20.90;22.20
20233;DHT22;37438;55.674;13.074;2023-06-04T11:43:01;21.40;13.60
20233;DHT22;37438;55.674;13.074;2023-06-04T11:46:06;21.80;1.00
20233;DHT22;37438;55.674;13.074;2023-06-04T11:49:17;21.30;23.20
20233;DHT22;37438;55.674;13.074;2023-06-04T11:52:22;22.20;1.80
20233;DHT22;37438;55.674;13.074;2023-06-04T11:55:27;22.40;1.00
20233;DHT22;37438;55.674;13.074;2023-06-04T11:58:31;21.30;5.00
20233;DHT22;37438;55.674;13.074;2023-06-04T12:01:36;21.70;1.00
20233;DHT22;37438;55.674;13.074;2023-06-04T12:04:41;21.90;1.00
20233;DHT22;37438;55.674;13.074;2023-06-04T12:07:46;21.70;1.00
20233;DHT22;37438;55.674;13.074;2023-06-04T12:10:54;21.10;1.00
20233;DHT22;37438;55.674;13.074;2023-06-04T12:13:59;20.60;5.80
20233;DHT22;37438;55.674;13.074;2023-06-04T12:17:07;22.50;1.00
20233;DHT22;37438;55.674;13.074;2023-06-04T12:20:12;21.90;1.00
20233;DHT22;37438;55.674;13.074;2023-06-04T12:23:21;21.40;1.00
20233;DHT22;37438;55.674;13.074;2023-06-04T12:26:26;22.50;1.00
20233;DHT22;37438;55.674;13.074;2023-06-04T12:29:34;22.70;1.00
20233;DHT22;37438;55.674;13.074;2023-06-04T12:32:38;22.60;1.00
20233;DHT22;37438;55.674;13.074;2023-06-04T12:35:43;22.10;1.00
20233;DHT22;37438;55.674;13.074;2023-06-04T12:38:49;21.90;1.00
20233;DHT22;37438;55.674;13.074;2023-06-04T12:41:53;21.90;1.00
20233;DHT22;37438;55.674;13.074;2023-06-04T12:44:58;21.60;1.00
20233;DHT22;37438;55.674;13.074;2023-06-04T12:48:03;22.30;1.00
20233;DHT22;37438;55.674;13.074;2023-06-04T12:51:08;22.30;1.00
20233;DHT22;37438;55.674;13.074;2023-06-04T12:54:14;23.90;1.00
20233;DHT22;37438;55.674;13.074;2023-06-04T12:57:18;24.00;1.00
20233;DHT22;37438;55.674;13.074;2023-06-04T13:00:23;22.90;1.00
20233;DHT22;37438;55.674;13.074;2023-06-04T13:03:29;22.10;1.00
20233;DHT22;37438;55.674;13.074;2023-06-04T13:06:35;21.60;1.00
20233;DHT22;37438;55.674;13.074;2023-06-04T13:09:42;22.20;1.00
20233;DHT22;37438;55.674;13.074;2023-06-04T13:12:47;23.00;1.00
20233;DHT22;37438;55.674;13.074;2023-06-04T13:15:52;23.20;1.00
20233;DHT22;37438;55.674;13.074;2023-06-04T13:18:56;23.40;1.00
20233;DHT22;37438;55.674;13.074;2023-06-04T13:22:02;23.20;1.00
20233;DHT22;37438;55.674;13.074;2023-06-04T13:25:07;23.00;1.00
20233;DHT22;37438;55.674;13.074;2023-06-04T13:28:11;23.20;1.00
20233;DHT22;37438;55.674;13.074;2023-06-04T13:31:16;24.20;1.00
20233;DHT22;37438;55.674;13.074;2023-06-04T13:34:20;23.80;1.00
20233;DHT22;37438;55.674;13.074;2023-06-04T13:37:31;22.20;1.00
20233;DHT22;37438;55.674;13.074;2023-06-04T13:40:35;21.30;1.00
20233;DHT22;37438;55.674;13.074;2023-06-04T13:43:40;21.50;1.00
20233;DHT22;37438;55.674;13.074;2023-06-04T13:46:44;22.00;1.00
20233;DHT22;37438;55.674;13.074;2023-06-04T13:49:49;21.60;1.00
20233;DHT22;37438;55.674;13.074;2023-06-04T13:52:54;21.60;1.00
20233;DHT22;37438;55.674;13.074;2023-06-04T13:55:58;22.20;1.00
20233;DHT22;37438;55.674;13.074;2023-06-04T13:59:03;22.50;1.00
20233;DHT22;37438;55.674;13.074;2023-06-04T14:02:07;22.70;1.00
20233;DHT22;37438;55.674;13.074;2023-06-04T14:05:12;22.50;1.00
20233;DHT22;37438;55.674;13.074;2023-06-04T14:08:17;22.00;1.00
20233;DHT22;37438;55.674;13.074;2023-06-04T14:11:21;22.30;1.00
20233;DHT22;37438;55.674;13.074;2023-06-04T14:14:26;23.40;1.00
20233;DHT22;37438;55.674;13.074;2023-06-04T14:17:31;24.40;1.00
20233;DHT22;37438;55.674;13.074;2023-06-04T14:20:35;23.60;1.00
20233;DHT22;37438;55.674;13.074;2023-06-04T14:23:40;23.50;1.00
20233;DHT22;37438;55.674;13.074;2023-06-04T14:26:45;22.00;45.40
20233;DHT22;37438;55.674;13.074;2023-06-04T14:29:50;21.40;35.30
20233;DHT22;37438;55.674;13.074;2023-06-04T14:32:54;21.30;41.90
20233;DHT22;37438;55.674;13.074;2023-06-04T14:35:59;20.90;41.70
20233;DHT22;37438;55.674;13.074;2023-06-04T14:39:03;21.70;24.90
20233;DHT22;37438;55.674;13.074;2023-06-04T14:42:08;21.60;7.90
20233;DHT22;37438;55.674;13.074;2023-06-04T14:45:12;21.40;15.20
20233;DHT22;37438;55.674;13.074;2023-06-04T14:48:16;22.10;1.00
20233;DHT22;37438;55.674;13.074;2023-06-04T14:51:21;21.60;1.00
20233;DHT22;37438;55.674;13.074;2023-06-04T14:54:28;21.00;7.30
20233;DHT22;37438;55.674;13.074;2023-06-04T14:57:34;22.00;1.00
20233;DHT22;37438;55.674;13.074;2023-06-04T15:00:38;22.40;1.00
20233;DHT22;37438;55.674;13.074;2023-06-04T15:03:43;20.70;1.00
20233;DHT22;37438;55.674;13.074;2023-06-04T15:06:47;20.60;5.40
20233;DHT22;37438;55.674;13.074;2023-06-04T15:09:52;20.60;23.90
20233;DHT22;37438;55.674;13.074;2023-06-04T15:12:56;21.00;12.80
20233;DHT22;37438;55.674;13.074;2023-06-04T15:16:02;22.10;1.00
20233;DHT22;37438;55.674;13.074;2023-06-04T15:19:06;23.10;1.00
20233;DHT22;37438;55.674;13.074;2023-06-04T15:22:12;21.70;1.00
20233;DHT22;37438;55.674;13.074;2023-06-04T15:25:16;22.30;1.00
20233;DHT22;37438;55.674;13.074;2023-06-04T15:28:21;21.00;3.50
20233;DHT22;37438;55.674;13.074;2023-06-04T15:31:25;21.80;1.00
20233;DHT22;37438;55.674;13.074;2023-06-04T15:34:30;22.90;1.00
20233;DHT22;37438;55.674;13.074;2023-06-04T15:37:34;23.20;1.00
20233;DHT22;37438;55.674;13.074;2023-06-04T15:40:39;24.60;1.00
20233;DHT22;37438;55.674;13.074;2023-06-04T15:43:43;24.40;1.00
20233;DHT22;37438;55.674;13.074;2023-06-04T15:46:48;23.60;1.00
20233;DHT22;37438;55.674;13.074;2023-06-04T15:49:52;23.80;1.00
20233;DHT22;37438;55.674;13.074;2023-06-04T15:52:57;24.10;1.00
20233;DHT22;37438;55.674;13.074;2023-06-04T15:56:01;24.60;1.00
20233;DHT22;37438;55.674;13.074;2023-06-04T15:59:06;24.30;1.00
20233;DHT22;37438;55.674;13.074;2023-06-04T16:02:10;25.30;1.00
20233;DHT22;37438;55.674;13.074;2023-06-04T16:05:15;25.70;1.00
20233;DHT22;37438;55.674;13.074;2023-06-04T16:08:20;27.00;1.00
20233;DHT22;37438;55.674;13.074;2023-06-04T16:11:24;26.70;1.00
20233;DHT22;37438;55.674;13.074;2023-06-04T16:14:29;26.90;1.00
20233;DHT22;37438;55.674;13.074;2023-06-04T16:17:34;25.10;1.00
20233;DHT22;37438;55.674;13.074;2023-06-04T16:20:39;24.20;1.00
20233;DHT22;37438;55.674;13.074;2023-06-04T16:23:44;25.90;1.00
20233;DHT22;37438;55.674;13.074;2023-06-04T16:26:48;26.10;1.00
20233;DHT22;37438;55.674;13.074;2023-06-04T16:29:53;23.40;1.00
20233;DHT22;37438;55.674;13.074;2023-06-04T16:32:57;24.80;1.00
20233;DHT22;37438;55.674;13.074;2023-06-04T16:36:02;23.00;1.00
20233;DHT22;37438;55.674;13.074;2023-06-04T16:39:06;23.70;1.00
20233;DHT22;37438;55.674;13.074;2023-06-04T16:42:11;21.80;1.00
20233;DHT22;37438;55.674;13.074;2023-06-04T16:45:17;19.80;21.90
20233;DHT22;37438;55.674;13.074;2023-06-04T16:48:21;19.10;99.90
20233;DHT22;37438;55.674;13.074;2023-06-04T16:51:26;18.50;99.90
20233;DHT22;37438;55.674;13.074;2023-06-04T16:54:31;18.30;99.90
20233;DHT22;37438;55.674;13.074;2023-06-04T16:57:36;18.50;99.90
20233;DHT22;37438;55.674;13.074;2023-06-04T17:00:41;19.00;99.90
20233;DHT22;37438;55.674;13.074;2023-06-04T17:03:46;18.30;99.90
20233;DHT22;37438;55.674;13.074;2023-06-04T17:06:50;18.20;99.90
20233;DHT22;37438;55.674;13.074;2023-06-04T17:09:55;18.20;1.00
20233;DHT22;37438;55.674;13.074;2023-06-04T17:12:59;18.10;1.00
20233;DHT22;37438;55.674;13.074;2023-06-04T17:16:04;17.80;99.90
20233;DHT22;37438;55.674;13.074;2023-06-04T17:19:09;17.80;99.90
20233;DHT22;37438;55.674;13.074;2023-06-04T17:22:13;17.70;99.90
20233;DHT22;37438;55.674;13.074;2023-06-04T17:25:18;17.50;99.90
20233;DHT22;37438;55.674;13.074;2023-06-04T17:28:22;17.40;1.00
20233;DHT22;37438;55.674;13.074;2023-06-04T17:31:27;17.70;1.00
20233;DHT22;37438;55.674;13.074;2023-06-04T17:34:32;17.40;21.30
20233;DHT22;37438;55.674;13.074;2023-06-04T17:37:36;17.60;22.30
20233;DHT22;37438;55.674;13.074;2023-06-04T17:40:41;17.50;36.20
20233;DHT22;37438;55.674;13.074;2023-06-04T17:43:45;17.00;28.20
20233;DHT22;37438;55.674;13.074;2023-06-04T17:46:50;17.20;99.90
20233;DHT22;37438;55.674;13.074;2023-06-04T17:49:54;17.20;97.50
20233;DHT22;37438;55.674;13.074;2023-06-04T17:52:59;17.20;82.50
20233;DHT22;37438;55.674;13.074;2023-06-04T17:56:04;17.10;91.90
20233;DHT22;37438;55.674;13.074;2023-06-04T17:59:08;17.20;53.80
20233;DHT22;37438;55.674;13.074;2023-06-04T18:02:13;17.20;97.90
20233;DHT22;37438;55.674;13.074;2023-06-04T18:05:17;17.10;99.90
20233;DHT22;37438;55.674;13.074;2023-06-04T18:08:22;17.00;99.90
20233;DHT22;37438;55.674;13.074;2023-06-04T18:11:27;16.90;99.90
20233;DHT22;37438;55.674;13.074;2023-06-04T18:14:31;16.80;99.90
20233;DHT22;37438;55.674;13.074;2023-06-04T18:17:36;16.80;99.90
20233;DHT22;37438;55.674;13.074;2023-06-04T18:20:40;16.80;99.90
20233;DHT22;37438;55.674;13.074;2023-06-04T18:23:45;16.80;99.90
20233;DHT22;37438;55.674;13.074;2023-06-04T18:26:54;16.70;99.90
20233;DHT22;37438;55.674;13.074;2023-06-04T18:29:59;16.80;98.80
20233;DHT22;37438;55.674;13.074;2023-06-04T18:33:03;16.80;43.80
20233;DHT22;37438;55.674;13.074;2023-06-04T18:36:08;16.70;5.70
20233;DHT22;37438;55.674;13.074;2023-06-04T18:39:13;16.70;1.00
20233;DHT22;37438;55.674;13.074;2023-06-04T18:42:17;16.60;99.90
20233;DHT22;37438;55.674;13.074;2023-06-04T18:45:34;16.60;99.90
20233;DHT22;37438;55.674;13.074;2023-06-04T18:48:38;16.50;99.90
20233;DHT22;37438;55.674;13.074;2023-06-04T18:51:43;16.40;99.90
20233;DHT22;37438;55.674;13.074;2023-06-04T18:54:47;16.40;99.90
20233;DHT22;37438;55.674;13.074;2023-06-04T18:57:52;16.40;99.90
20233;DHT22;37438;55.674;13.074;2023-06-04T19:00:57;16.30;99.90
20233;DHT22;37438;55.674;13.074;2023-06-04T19:04:01;16.20;99.90
20233;DHT22;37438;55.674;13.074;2023-06-04T19:07:05;16.20;99.90
20233;DHT22;37438;55.674;13.074;2023-06-04T19:10:10;16.20;99.90
20233;DHT22;37438;55.674;13.074;2023-06-04T19:13:18;16.20;99.90
20233;DHT22;37438;55.674;13.074;2023-06-04T19:16:22;16.00;99.90
20233;DHT22;37438;55.674;13.074;2023-06-04T19:19:27;15.90;1.00
20233;DHT22;37438;55.674;13.074;2023-06-04T19:22:32;15.90;9.20
20233;DHT22;37438;55.674;13.074;2023-06-04T19:25:36;15.80;67.10